sensor_id;sensor_type;location;lat;lon;timestamp;P1;durP1;ratioP1;P2;durP2;ratioP2
63259;SDS011;49390;51.380;0.098;2022-08-19T00:01:20;7.68;;;3.70;;
63259;SDS011;49390;51.380;0.098;2022-08-19T00:03:58;12.30;;;4.30;;
63259;SDS011;49390;51.380;0.098;2022-08-19T00:06:29;11.77;;;4.00;;
63259;SDS011;49390;51.380;0.098;2022-08-19T00:08:58;12.52;;;4.10;;
63259;SDS011;49390;51.380;0.098;2022-08-19T00:11:27;13.40;;;4.50;;
63259;SDS011;49390;51.380;0.098;2022-08-19T00:13:57;13.32;;;4.38;;
63259;SDS011;49390;51.380;0.098;2022-08-19T00:16:26;11.43;;;4.32;;
63259;SDS011;49390;51.380;0.098;2022-08-19T00:18:55;7.57;;;3.88;;
63259;SDS011;49390;51.380;0.098;2022-08-19T00:21:24;8.32;;;4.25;;
63259;SDS011;49390;51.380;0.098;2022-08-19T00:23:54;8.97;;;4.30;;
63259;SDS011;49390;51.380;0.098;2022-08-19T00:26:26;10.30;;;4.10;;
63259;SDS011;49390;51.380;0.098;2022-08-19T00:28:55;9.20;;;3.75;;
63259;SDS011;49390;51.380;0.098;2022-08-19T00:33:50;14.63;;;4.88;;
63259;SDS011;49390;51.380;0.098;2022-08-19T00:36:18;11.38;;;4.55;;
63259;SDS011;49390;51.380;0.098;2022-08-19T00:38:47;10.70;;;4.32;;
63259;SDS011;49390;51.380;0.098;2022-08-19T00:41:16;9.80;;;4.30;;
63259;SDS011;49390;51.380;0.098;2022-08-19T00:46:30;10.82;;;4.30;;
63259;SDS011;49390;51.380;0.098;2022-08-19T00:49:00;10.40;;;4.10;;
63259;SDS011;49390;51.380;0.098;2022-08-19T00:51:33;9.98;;;4.43;;
63259;SDS011;49390;51.380;0.098;2022-08-19T00:54:02;9.82;;;3.95;;
63259;SDS011;49390;51.380;0.098;2022-08-19T00:56:31;11.15;;;4.20;;
63259;SDS011;49390;51.380;0.098;2022-08-19T00:59:00;10.68;;;4.55;;
63259;SDS011;49390;51.380;0.098;2022-08-19T01:01:30;11.50;;;4.47;;
63259;SDS011;49390;51.380;0.098;2022-08-19T01:03:58;12.68;;;4.40;;
63259;SDS011;49390;51.380;0.098;2022-08-19T01:06:27;9.70;;;4.28;;
63259;SDS011;49390;51.380;0.098;2022-08-19T01:08:55;10.50;;;4.18;;
63259;SDS011;49390;51.380;0.098;2022-08-19T01:11:24;12.25;;;4.63;;
63259;SDS011;49390;51.380;0.098;2022-08-19T01:13:53;8.45;;;4.30;;
63259;SDS011;49390;51.380;0.098;2022-08-19T01:16:24;11.50;;;4.13;;
63259;SDS011;49390;51.380;0.098;2022-08-19T01:18:54;12.38;;;4.78;;
63259;SDS011;49390;51.380;0.098;2022-08-19T01:24:00;12.75;;;4.38;;
63259;SDS011;49390;51.380;0.098;2022-08-19T01:26:28;9.68;;;4.35;;
63259;SDS011;49390;51.380;0.098;2022-08-19T01:28:58;11.65;;;4.45;;
63259;SDS011;49390;51.380;0.098;2022-08-19T01:31:31;8.73;;;4.15;;
63259;SDS011;49390;51.380;0.098;2022-08-19T01:34:00;12.95;;;4.47;;
63259;SDS011;49390;51.380;0.098;2022-08-19T01:39:03;11.95;;;4.82;;
63259;SDS011;49390;51.380;0.098;2022-08-19T01:41:33;14.00;;;5.07;;
63259;SDS011;49390;51.380;0.098;2022-08-19T01:44:03;11.20;;;5.30;;
63259;SDS011;49390;51.380;0.098;2022-08-19T01:46:46;12.10;;;5.68;;
63259;SDS011;49390;51.380;0.098;2022-08-19T01:49:17;12.75;;;5.95;;
63259;SDS011;49390;51.380;0.098;2022-08-19T01:51:48;13.75;;;5.80;;
63259;SDS011;49390;51.380;0.098;2022-08-19T01:54:18;12.65;;;5.82;;
63259;SDS011;49390;51.380;0.098;2022-08-19T01:56:59;13.35;;;6.82;;
63259;SDS011;49390;51.380;0.098;2022-08-19T01:59:33;15.80;;;6.53;;
63259;SDS011;49390;51.380;0.098;2022-08-19T02:02:04;14.30;;;7.57;;
63259;SDS011;49390;51.380;0.098;2022-08-19T02:04:37;13.45;;;6.90;;
63259;SDS011;49390;51.380;0.098;2022-08-19T02:07:06;17.30;;;7.95;;
63259;SDS011;49390;51.380;0.098;2022-08-19T02:09:36;15.88;;;7.43;;
63259;SDS011;49390;51.380;0.098;2022-08-19T02:12:04;15.30;;;7.18;;
63259;SDS011;49390;51.380;0.098;2022-08-19T02:14:33;17.95;;;7.70;;
63259;SDS011;49390;51.380;0.098;2022-08-19T02:17:02;16.00;;;8.02;;
63259;SDS011;49390;51.380;0.098;2022-08-19T02:19:31;16.05;;;7.80;;
63259;SDS011;49390;51.380;0.098;2022-08-19T02:22:00;17.48;;;7.80;;
63259;SDS011;49390;51.380;0.098;2022-08-19T02:24:31;15.95;;;7.78;;
63259;SDS011;49390;51.380;0.098;2022-08-19T02:26:59;18.70;;;7.10;;
63259;SDS011;49390;51.380;0.098;2022-08-19T02:29:27;15.70;;;6.90;;
63259;SDS011;49390;51.380;0.098;2022-08-19T02:31:56;16.83;;;6.93;;
63259;SDS011;49390;51.380;0.098;2022-08-19T02:34:24;15.25;;;7.20;;
63259;SDS011;49390;51.380;0.098;2022-08-19T02:36:52;13.93;;;6.80;;
63259;SDS011;49390;51.380;0.098;2022-08-19T02:39:21;18.38;;;7.15;;
63259;SDS011;49390;51.380;0.098;2022-08-19T02:41:50;14.52;;;6.75;;
63259;SDS011;49390;51.380;0.098;2022-08-19T02:44:19;17.17;;;7.53;;
63259;SDS011;49390;51.380;0.098;2022-08-19T02:46:58;15.32;;;7.82;;
63259;SDS011;49390;51.380;0.098;2022-08-19T02:49:30;13.27;;;6.65;;
63259;SDS011;49390;51.380;0.098;2022-08-19T02:52:02;16.15;;;6.88;;
63259;SDS011;49390;51.380;0.098;2022-08-19T02:54:31;14.80;;;6.65;;
63259;SDS011;49390;51.380;0.098;2022-08-19T02:56:59;15.13;;;7.30;;
63259;SDS011;49390;51.380;0.098;2022-08-19T02:59:29;14.27;;;6.50;;
63259;SDS011;49390;51.380;0.098;2022-08-19T03:01:59;11.70;;;6.10;;
63259;SDS011;49390;51.380;0.098;2022-08-19T03:04:27;14.32;;;6.50;;
63259;SDS011;49390;51.380;0.098;2022-08-19T03:06:57;13.55;;;7.65;;
63259;SDS011;49390;51.380;0.098;2022-08-19T03:09:37;11.57;;;7.03;;
63259;SDS011;49390;51.380;0.098;2022-08-19T03:12:06;13.13;;;6.35;;
63259;SDS011;49390;51.380;0.098;2022-08-19T03:14:34;12.07;;;6.00;;
63259;SDS011;49390;51.380;0.098;2022-08-19T03:17:03;13.93;;;6.60;;
63259;SDS011;49390;51.380;0.098;2022-08-19T03:19:32;15.50;;;6.35;;
63259;SDS011;49390;51.380;0.098;2022-08-19T03:22:01;14.18;;;6.00;;
63259;SDS011;49390;51.380;0.098;2022-08-19T03:24:32;13.60;;;6.60;;
63259;SDS011;49390;51.380;0.098;2022-08-19T03:27:00;15.68;;;6.80;;
63259;SDS011;49390;51.380;0.098;2022-08-19T03:29:31;13.80;;;6.05;;
63259;SDS011;49390;51.380;0.098;2022-08-19T03:32:09;15.93;;;6.40;;
63259;SDS011;49390;51.380;0.098;2022-08-19T03:34:58;12.45;;;5.85;;
63259;SDS011;49390;51.380;0.098;2022-08-19T03:37:26;12.63;;;6.10;;
63259;SDS011;49390;51.380;0.098;2022-08-19T03:39:54;14.68;;;5.82;;
63259;SDS011;49390;51.380;0.098;2022-08-19T03:42:22;12.27;;;6.00;;
63259;SDS011;49390;51.380;0.098;2022-08-19T03:45:11;9.98;;;5.53;;
63259;SDS011;49390;51.380;0.098;2022-08-19T03:47:39;11.55;;;5.75;;
63259;SDS011;49390;51.380;0.098;2022-08-19T03:50:07;14.45;;;6.85;;
63259;SDS011;49390;51.380;0.098;2022-08-19T03:52:36;14.65;;;6.97;;
63259;SDS011;49390;51.380;0.098;2022-08-19T03:55:05;18.00;;;6.93;;
63259;SDS011;49390;51.380;0.098;2022-08-19T03:57:34;14.52;;;7.32;;
63259;SDS011;49390;51.380;0.098;2022-08-19T04:00:02;13.20;;;6.30;;
63259;SDS011;49390;51.380;0.098;2022-08-19T04:02:40;15.98;;;7.10;;
63259;SDS011;49390;51.380;0.098;2022-08-19T04:05:25;22.70;;;8.10;;
63259;SDS011;49390;51.380;0.098;2022-08-19T04:07:56;16.30;;;7.30;;
63259;SDS011;49390;51.380;0.098;2022-08-19T04:10:27;17.58;;;7.13;;
63259;SDS011;49390;51.380;0.098;2022-08-19T04:12:56;15.35;;;7.65;;
63259;SDS011;49390;51.380;0.098;2022-08-19T04:15:24;17.67;;;7.70;;
63259;SDS011;49390;51.380;0.098;2022-08-19T04:17:52;16.88;;;7.57;;
63259;SDS011;49390;51.380;0.098;2022-08-19T04:20:20;17.95;;;8.20;;
63259;SDS011;49390;51.380;0.098;2022-08-19T04:22:48;16.08;;;7.90;;
63259;SDS011;49390;51.380;0.098;2022-08-19T04:25:16;15.05;;;7.63;;
63259;SDS011;49390;51.380;0.098;2022-08-19T04:27:45;18.63;;;8.20;;
63259;SDS011;49390;51.380;0.098;2022-08-19T04:30:14;20.85;;;8.27;;
63259;SDS011;49390;51.380;0.098;2022-08-19T04:32:45;17.40;;;7.18;;
63259;SDS011;49390;51.380;0.098;2022-08-19T04:35:13;16.55;;;8.05;;
63259;SDS011;49390;51.380;0.098;2022-08-19T04:37:44;16.10;;;7.35;;
63259;SDS011;49390;51.380;0.098;2022-08-19T04:40:13;16.55;;;7.72;;
63259;SDS011;49390;51.380;0.098;2022-08-19T04:43:00;12.32;;;6.97;;
63259;SDS011;49390;51.380;0.098;2022-08-19T04:45:28;14.38;;;7.63;;
63259;SDS011;49390;51.380;0.098;2022-08-19T04:50:54;15.90;;;8.30;;
63259;SDS011;49390;51.380;0.098;2022-08-19T04:53:31;13.90;;;7.28;;
63259;SDS011;49390;51.380;0.098;2022-08-19T04:56:09;14.82;;;7.70;;
63259;SDS011;49390;51.380;0.098;2022-08-19T04:58:41;15.30;;;7.32;;
63259;SDS011;49390;51.380;0.098;2022-08-19T05:01:12;14.27;;;7.53;;
63259;SDS011;49390;51.380;0.098;2022-08-19T05:03:41;16.02;;;8.27;;
63259;SDS011;49390;51.380;0.098;2022-08-19T05:06:11;15.18;;;8.20;;
63259;SDS011;49390;51.380;0.098;2022-08-19T05:08:41;13.55;;;7.57;;
63259;SDS011;49390;51.380;0.098;2022-08-19T05:11:11;15.32;;;6.60;;
63259;SDS011;49390;51.380;0.098;2022-08-19T05:13:41;10.50;;;6.97;;
63259;SDS011;49390;51.380;0.098;2022-08-19T05:16:13;15.45;;;7.22;;
63259;SDS011;49390;51.380;0.098;2022-08-19T05:18:42;12.52;;;7.03;;
63259;SDS011;49390;51.380;0.098;2022-08-19T05:21:30;15.25;;;7.90;;
63259;SDS011;49390;51.380;0.098;2022-08-19T05:24:17;14.90;;;7.10;;
63259;SDS011;49390;51.380;0.098;2022-08-19T05:26:47;12.10;;;6.68;;
63259;SDS011;49390;51.380;0.098;2022-08-19T05:29:19;11.88;;;6.30;;
63259;SDS011;49390;51.380;0.098;2022-08-19T05:31:49;10.55;;;6.18;;
63259;SDS011;49390;51.380;0.098;2022-08-19T05:34:18;13.77;;;7.03;;
63259;SDS011;49390;51.380;0.098;2022-08-19T05:36:49;10.93;;;5.82;;
63259;SDS011;49390;51.380;0.098;2022-08-19T05:39:20;9.55;;;5.82;;
63259;SDS011;49390;51.380;0.098;2022-08-19T05:41:50;9.60;;;5.03;;
63259;SDS011;49390;51.380;0.098;2022-08-19T05:44:20;9.20;;;5.00;;
63259;SDS011;49390;51.380;0.098;2022-08-19T05:46:49;8.50;;;4.00;;
63259;SDS011;49390;51.380;0.098;2022-08-19T05:51:49;6.68;;;3.42;;
63259;SDS011;49390;51.380;0.098;2022-08-19T05:54:17;6.28;;;3.10;;
63259;SDS011;49390;51.380;0.098;2022-08-19T05:56:46;4.88;;;2.75;;
63259;SDS011;49390;51.380;0.098;2022-08-19T05:59:16;6.28;;;3.08;;
63259;SDS011;49390;51.380;0.098;2022-08-19T06:01:45;4.93;;;2.72;;
63259;SDS011;49390;51.380;0.098;2022-08-19T06:04:18;11.15;;;2.95;;
63259;SDS011;49390;51.380;0.098;2022-08-19T06:06:51;5.82;;;2.60;;
63259;SDS011;49390;51.380;0.098;2022-08-19T06:11:51;5.30;;;2.30;;
63259;SDS011;49390;51.380;0.098;2022-08-19T06:14:23;5.75;;;2.20;;
63259;SDS011;49390;51.380;0.098;2022-08-19T06:16:54;4.30;;;2.20;;
63259;SDS011;49390;51.380;0.098;2022-08-19T06:19:23;7.15;;;2.30;;
63259;SDS011;49390;51.380;0.098;2022-08-19T06:21:52;5.30;;;2.00;;
63259;SDS011;49390;51.380;0.098;2022-08-19T06:24:22;4.60;;;2.00;;
63259;SDS011;49390;51.380;0.098;2022-08-19T06:26:54;6.25;;;2.20;;
63259;SDS011;49390;51.380;0.098;2022-08-19T06:29:28;5.60;;;1.90;;
63259;SDS011;49390;51.380;0.098;2022-08-19T06:31:58;3.22;;;1.92;;
63259;SDS011;49390;51.380;0.098;2022-08-19T06:34:28;3.08;;;1.85;;
63259;SDS011;49390;51.380;0.098;2022-08-19T06:36:58;4.07;;;2.13;;
63259;SDS011;49390;51.380;0.098;2022-08-19T06:39:30;4.43;;;1.80;;
63259;SDS011;49390;51.380;0.098;2022-08-19T06:42:01;4.35;;;1.98;;
63259;SDS011;49390;51.380;0.098;2022-08-19T06:44:36;2.70;;;1.70;;
63259;SDS011;49390;51.380;0.098;2022-08-19T06:47:12;3.47;;;1.80;;
63259;SDS011;49390;51.380;0.098;2022-08-19T06:49:55;2.80;;;1.70;;
63259;SDS011;49390;51.380;0.098;2022-08-19T06:52:31;4.57;;;1.90;;
63259;SDS011;49390;51.380;0.098;2022-08-19T06:55:03;2.35;;;1.80;;
63259;SDS011;49390;51.380;0.098;2022-08-19T06:57:33;3.47;;;1.73;;
63259;SDS011;49390;51.380;0.098;2022-08-19T07:00:02;4.53;;;1.80;;
63259;SDS011;49390;51.380;0.098;2022-08-19T07:02:36;4.10;;;1.85;;
63259;SDS011;49390;51.380;0.098;2022-08-19T07:05:05;5.05;;;2.35;;
63259;SDS011;49390;51.380;0.098;2022-08-19T07:07:33;3.78;;;1.90;;
63259;SDS011;49390;51.380;0.098;2022-08-19T07:10:02;5.47;;;2.20;;
63259;SDS011;49390;51.380;0.098;2022-08-19T07:12:33;8.35;;;2.65;;
63259;SDS011;49390;51.380;0.098;2022-08-19T07:15:04;5.95;;;2.17;;
63259;SDS011;49390;51.380;0.098;2022-08-19T07:17:35;4.60;;;2.15;;
63259;SDS011;49390;51.380;0.098;2022-08-19T07:20:09;7.90;;;2.17;;
63259;SDS011;49390;51.380;0.098;2022-08-19T07:22:38;4.05;;;1.83;;
63259;SDS011;49390;51.380;0.098;2022-08-19T07:25:07;3.30;;;1.90;;
63259;SDS011;49390;51.380;0.098;2022-08-19T07:27:36;4.60;;;2.00;;
63259;SDS011;49390;51.380;0.098;2022-08-19T07:30:13;6.45;;;2.20;;
63259;SDS011;49390;51.380;0.098;2022-08-19T07:32:41;5.55;;;1.98;;
63259;SDS011;49390;51.380;0.098;2022-08-19T07:35:09;4.88;;;1.90;;
63259;SDS011;49390;51.380;0.098;2022-08-19T07:37:38;5.35;;;1.90;;
63259;SDS011;49390;51.380;0.098;2022-08-19T07:40:12;3.88;;;1.85;;
63259;SDS011;49390;51.380;0.098;2022-08-19T07:42:40;5.25;;;1.75;;
63259;SDS011;49390;51.380;0.098;2022-08-19T07:45:10;5.72;;;2.10;;
63259;SDS011;49390;51.380;0.098;2022-08-19T07:47:38;6.05;;;1.98;;
63259;SDS011;49390;51.380;0.098;2022-08-19T07:50:25;4.70;;;1.77;;
63259;SDS011;49390;51.380;0.098;2022-08-19T07:52:53;4.75;;;1.80;;
63259;SDS011;49390;51.380;0.098;2022-08-19T07:55:22;3.40;;;1.98;;
63259;SDS011;49390;51.380;0.098;2022-08-19T07:58:12;5.90;;;1.90;;
63259;SDS011;49390;51.380;0.098;2022-08-19T08:00:44;4.57;;;1.73;;
63259;SDS011;49390;51.380;0.098;2022-08-19T08:03:16;4.10;;;1.80;;
63259;SDS011;49390;51.380;0.098;2022-08-19T08:05:47;3.15;;;1.80;;
63259;SDS011;49390;51.380;0.098;2022-08-19T08:08:34;5.38;;;1.80;;
63259;SDS011;49390;51.380;0.098;2022-08-19T08:11:21;6.25;;;2.20;;
63259;SDS011;49390;51.380;0.098;2022-08-19T08:13:50;4.47;;;2.00;;
63259;SDS011;49390;51.380;0.098;2022-08-19T08:16:26;8.45;;;2.00;;
63259;SDS011;49390;51.380;0.098;2022-08-19T08:18:59;3.13;;;1.98;;
63259;SDS011;49390;51.380;0.098;2022-08-19T08:21:27;7.78;;;2.03;;
63259;SDS011;49390;51.380;0.098;2022-08-19T08:23:56;4.53;;;1.85;;
63259;SDS011;49390;51.380;0.098;2022-08-19T08:26:30;4.43;;;1.88;;
63259;SDS011;49390;51.380;0.098;2022-08-19T08:29:00;4.88;;;1.80;;
63259;SDS011;49390;51.380;0.098;2022-08-19T08:31:39;3.95;;;1.92;;
63259;SDS011;49390;51.380;0.098;2022-08-19T08:34:09;5.93;;;2.17;;
63259;SDS011;49390;51.380;0.098;2022-08-19T08:36:40;6.40;;;2.10;;
63259;SDS011;49390;51.380;0.098;2022-08-19T08:39:11;4.20;;;2.30;;
63259;SDS011;49390;51.380;0.098;2022-08-19T08:44:28;5.63;;;2.00;;
63259;SDS011;49390;51.380;0.098;2022-08-19T08:47:10;4.07;;;1.90;;
63259;SDS011;49390;51.380;0.098;2022-08-19T08:49:47;4.38;;;1.80;;
63259;SDS011;49390;51.380;0.098;2022-08-19T08:52:29;5.60;;;2.05;;
63259;SDS011;49390;51.380;0.098;2022-08-19T08:55:07;3.63;;;2.00;;
63259;SDS011;49390;51.380;0.098;2022-08-19T09:00:24;3.67;;;1.92;;
63259;SDS011;49390;51.380;0.098;2022-08-19T09:02:54;6.90;;;2.10;;
63259;SDS011;49390;51.380;0.098;2022-08-19T09:05:26;3.03;;;1.85;;
63259;SDS011;49390;51.380;0.098;2022-08-19T09:08:17;4.63;;;1.95;;
63259;SDS011;49390;51.380;0.098;2022-08-19T09:11:03;3.75;;;1.90;;
63259;SDS011;49390;51.380;0.098;2022-08-19T09:16:23;7.43;;;2.00;;
63259;SDS011;49390;51.380;0.098;2022-08-19T09:18:56;4.20;;;1.98;;
63259;SDS011;49390;51.380;0.098;2022-08-19T09:21:28;5.82;;;2.17;;
63259;SDS011;49390;51.380;0.098;2022-08-19T09:24:01;5.80;;;1.92;;
63259;SDS011;49390;51.380;0.098;2022-08-19T09:26:31;6.75;;;2.47;;
63259;SDS011;49390;51.380;0.098;2022-08-19T09:29:20;3.65;;;2.10;;
63259;SDS011;49390;51.380;0.098;2022-08-19T09:31:49;7.47;;;2.33;;
63259;SDS011;49390;51.380;0.098;2022-08-19T09:34:17;6.30;;;2.03;;
63259;SDS011;49390;51.380;0.098;2022-08-19T09:36:49;4.38;;;1.98;;
63259;SDS011;49390;51.380;0.098;2022-08-19T09:39:22;6.40;;;2.30;;
63259;SDS011;49390;51.380;0.098;2022-08-19T09:41:51;8.85;;;2.50;;
63259;SDS011;49390;51.380;0.098;2022-08-19T09:44:20;7.50;;;2.63;;
63259;SDS011;49390;51.380;0.098;2022-08-19T09:46:48;6.03;;;2.20;;
63259;SDS011;49390;51.380;0.098;2022-08-19T09:49:18;3.70;;;2.00;;
63259;SDS011;49390;51.380;0.098;2022-08-19T09:51:50;5.45;;;2.10;;
63259;SDS011;49390;51.380;0.098;2022-08-19T09:54:21;4.07;;;1.98;;
63259;SDS011;49390;51.380;0.098;2022-08-19T09:56:52;6.75;;;2.20;;
63259;SDS011;49390;51.380;0.098;2022-08-19T09:59:21;5.78;;;2.40;;
63259;SDS011;49390;51.380;0.098;2022-08-19T10:01:49;4.68;;;2.00;;
63259;SDS011;49390;51.380;0.098;2022-08-19T10:04:19;5.43;;;2.20;;
63259;SDS011;49390;51.380;0.098;2022-08-19T10:06:49;8.82;;;2.13;;
63259;SDS011;49390;51.380;0.098;2022-08-19T10:09:22;7.40;;;2.50;;
63259;SDS011;49390;51.380;0.098;2022-08-19T10:12:02;3.72;;;2.30;;
63259;SDS011;49390;51.380;0.098;2022-08-19T10:14:32;5.15;;;2.30;;
63259;SDS011;49390;51.380;0.098;2022-08-19T10:17:01;6.97;;;2.40;;
63259;SDS011;49390;51.380;0.098;2022-08-19T10:19:46;6.78;;;2.47;;
63259;SDS011;49390;51.380;0.098;2022-08-19T10:22:22;5.05;;;2.30;;
63259;SDS011;49390;51.380;0.098;2022-08-19T10:27:20;5.97;;;2.30;;
63259;SDS011;49390;51.380;0.098;2022-08-19T10:29:52;7.15;;;2.58;;
63259;SDS011;49390;51.380;0.098;2022-08-19T10:32:21;7.07;;;2.75;;
63259;SDS011;49390;51.380;0.098;2022-08-19T10:35:01;10.15;;;2.70;;
63259;SDS011;49390;51.380;0.098;2022-08-19T10:37:33;6.70;;;3.00;;
63259;SDS011;49390;51.380;0.098;2022-08-19T10:42:46;8.80;;;2.60;;
63259;SDS011;49390;51.380;0.098;2022-08-19T10:45:14;8.60;;;2.55;;
63259;SDS011;49390;51.380;0.098;2022-08-19T10:47:42;6.78;;;2.50;;
63259;SDS011;49390;51.380;0.098;2022-08-19T10:50:10;7.63;;;2.70;;
63259;SDS011;49390;51.380;0.098;2022-08-19T10:52:57;7.88;;;2.60;;
63259;SDS011;49390;51.380;0.098;2022-08-19T10:55:24;11.88;;;3.33;;
63259;SDS011;49390;51.380;0.098;2022-08-19T10:58:21;9.75;;;3.00;;
63259;SDS011;49390;51.380;0.098;2022-08-19T11:00:53;8.73;;;2.97;;
63259;SDS011;49390;51.380;0.098;2022-08-19T11:03:24;5.75;;;2.70;;
63259;SDS011;49390;51.380;0.098;2022-08-19T11:06:02;7.32;;;2.67;;
63259;SDS011;49390;51.380;0.098;2022-08-19T11:08:33;8.38;;;2.75;;
63259;SDS011;49390;51.380;0.098;2022-08-19T11:11:05;7.47;;;2.88;;
63259;SDS011;49390;51.380;0.098;2022-08-19T11:13:35;9.13;;;2.73;;
63259;SDS011;49390;51.380;0.098;2022-08-19T11:16:14;7.90;;;3.00;;
63259;SDS011;49390;51.380;0.098;2022-08-19T11:18:47;6.90;;;2.63;;
63259;SDS011;49390;51.380;0.098;2022-08-19T11:21:21;8.23;;;2.97;;
63259;SDS011;49390;51.380;0.098;2022-08-19T11:23:52;7.82;;;2.58;;
63259;SDS011;49390;51.380;0.098;2022-08-19T11:26:24;6.18;;;2.70;;
63259;SDS011;49390;51.380;0.098;2022-08-19T11:28:57;7.00;;;2.53;;
63259;SDS011;49390;51.380;0.098;2022-08-19T11:31:27;7.40;;;2.63;;
63259;SDS011;49390;51.380;0.098;2022-08-19T11:34:02;8.73;;;2.85;;
63259;SDS011;49390;51.380;0.098;2022-08-19T11:36:32;10.15;;;2.85;;
63259;SDS011;49390;51.380;0.098;2022-08-19T11:39:01;11.48;;;3.55;;
63259;SDS011;49390;51.380;0.098;2022-08-19T11:41:30;7.07;;;3.20;;
63259;SDS011;49390;51.380;0.098;2022-08-19T11:44:00;9.00;;;3.40;;
63259;SDS011;49390;51.380;0.098;2022-08-19T11:46:31;11.77;;;3.53;;
63259;SDS011;49390;51.380;0.098;2022-08-19T11:49:00;7.50;;;3.10;;
63259;SDS011;49390;51.380;0.098;2022-08-19T11:51:30;7.90;;;3.30;;
63259;SDS011;49390;51.380;0.098;2022-08-19T11:54:00;12.95;;;3.88;;
63259;SDS011;49390;51.380;0.098;2022-08-19T11:56:29;12.82;;;4.18;;
63259;SDS011;49390;51.380;0.098;2022-08-19T11:58:58;10.77;;;4.30;;
63259;SDS011;49390;51.380;0.098;2022-08-19T12:01:28;14.80;;;4.03;;
63259;SDS011;49390;51.380;0.098;2022-08-19T12:03:59;9.95;;;3.67;;
63259;SDS011;49390;51.380;0.098;2022-08-19T12:06:29;11.02;;;4.18;;
63259;SDS011;49390;51.380;0.098;2022-08-19T12:09:01;10.10;;;4.75;;
63259;SDS011;49390;51.380;0.098;2022-08-19T12:11:31;9.73;;;4.00;;
63259;SDS011;49390;51.380;0.098;2022-08-19T12:14:01;12.30;;;4.82;;
63259;SDS011;49390;51.380;0.098;2022-08-19T12:16:29;11.70;;;4.00;;
63259;SDS011;49390;51.380;0.098;2022-08-19T12:18:59;11.23;;;4.13;;
63259;SDS011;49390;51.380;0.098;2022-08-19T12:21:32;8.10;;;3.67;;
63259;SDS011;49390;51.380;0.098;2022-08-19T12:24:04;13.10;;;4.20;;
63259;SDS011;49390;51.380;0.098;2022-08-19T12:26:33;10.23;;;3.72;;
63259;SDS011;49390;51.380;0.098;2022-08-19T12:29:21;9.20;;;4.00;;
63259;SDS011;49390;51.380;0.098;2022-08-19T12:31:56;13.13;;;4.93;;
63259;SDS011;49390;51.380;0.098;2022-08-19T12:34:30;12.50;;;4.22;;
63259;SDS011;49390;51.380;0.098;2022-08-19T12:37:01;11.05;;;4.07;;
63259;SDS011;49390;51.380;0.098;2022-08-19T12:39:34;12.98;;;4.22;;
63259;SDS011;49390;51.380;0.098;2022-08-19T12:42:05;10.65;;;3.65;;
63259;SDS011;49390;51.380;0.098;2022-08-19T12:44:36;8.43;;;3.88;;
63259;SDS011;49390;51.380;0.098;2022-08-19T12:47:10;9.95;;;3.92;;
63259;SDS011;49390;51.380;0.098;2022-08-19T12:49:41;9.68;;;3.55;;
63259;SDS011;49390;51.380;0.098;2022-08-19T12:52:25;9.18;;;3.88;;
63259;SDS011;49390;51.380;0.098;2022-08-19T12:54:56;9.63;;;3.88;;
63259;SDS011;49390;51.380;0.098;2022-08-19T12:57:26;11.90;;;3.72;;
63259;SDS011;49390;51.380;0.098;2022-08-19T13:00:10;10.10;;;3.55;;
63259;SDS011;49390;51.380;0.098;2022-08-19T13:02:41;9.52;;;3.05;;
63259;SDS011;49390;51.380;0.098;2022-08-19T13:05:13;12.75;;;3.55;;
63259;SDS011;49390;51.380;0.098;2022-08-19T13:07:44;11.40;;;3.70;;
63259;SDS011;49390;51.380;0.098;2022-08-19T13:10:14;10.85;;;3.25;;
63259;SDS011;49390;51.380;0.098;2022-08-19T13:12:46;11.60;;;3.67;;
63259;SDS011;49390;51.380;0.098;2022-08-19T13:15:17;10.38;;;3.40;;
63259;SDS011;49390;51.380;0.098;2022-08-19T13:17:51;14.20;;;3.88;;
63259;SDS011;49390;51.380;0.098;2022-08-19T13:20:21;9.00;;;3.47;;
63259;SDS011;49390;51.380;0.098;2022-08-19T13:22:51;11.70;;;3.78;;
63259;SDS011;49390;51.380;0.098;2022-08-19T13:25:20;8.30;;;3.00;;
63259;SDS011;49390;51.380;0.098;2022-08-19T13:27:49;12.05;;;3.33;;
63259;SDS011;49390;51.380;0.098;2022-08-19T13:30:19;14.93;;;3.90;;
63259;SDS011;49390;51.380;0.098;2022-08-19T13:33:06;8.63;;;3.40;;
63259;SDS011;49390;51.380;0.098;2022-08-19T13:35:39;12.45;;;3.42;;
63259;SDS011;49390;51.380;0.098;2022-08-19T13:38:10;11.10;;;3.25;;
63259;SDS011;49390;51.380;0.098;2022-08-19T13:40:40;11.45;;;3.60;;
63259;SDS011;49390;51.380;0.098;2022-08-19T13:43:09;13.43;;;3.42;;
63259;SDS011;49390;51.380;0.098;2022-08-19T13:45:50;9.50;;;3.38;;
63259;SDS011;49390;51.380;0.098;2022-08-19T13:48:24;12.27;;;3.45;;
63259;SDS011;49390;51.380;0.098;2022-08-19T13:50:56;13.10;;;3.88;;
63259;SDS011;49390;51.380;0.098;2022-08-19T13:53:24;10.45;;;3.30;;
63259;SDS011;49390;51.380;0.098;2022-08-19T13:55:52;12.90;;;3.80;;
63259;SDS011;49390;51.380;0.098;2022-08-19T13:58:21;13.13;;;3.85;;
63259;SDS011;49390;51.380;0.098;2022-08-19T14:00:53;10.85;;;3.30;;
63259;SDS011;49390;51.380;0.098;2022-08-19T14:03:21;12.25;;;3.67;;
63259;SDS011;49390;51.380;0.098;2022-08-19T14:05:49;11.25;;;3.55;;
63259;SDS011;49390;51.380;0.098;2022-08-19T14:08:18;12.23;;;3.53;;
63259;SDS011;49390;51.380;0.098;2022-08-19T14:10:46;12.10;;;3.53;;
63259;SDS011;49390;51.380;0.098;2022-08-19T14:13:17;15.55;;;3.30;;
63259;SDS011;49390;51.380;0.098;2022-08-19T14:15:48;11.48;;;3.30;;
63259;SDS011;49390;51.380;0.098;2022-08-19T14:18:19;10.98;;;3.58;;
63259;SDS011;49390;51.380;0.098;2022-08-19T14:20:54;12.45;;;3.28;;
63259;SDS011;49390;51.380;0.098;2022-08-19T14:23:25;13.93;;;3.67;;
63259;SDS011;49390;51.380;0.098;2022-08-19T14:25:53;11.73;;;3.40;;
63259;SDS011;49390;51.380;0.098;2022-08-19T14:31:02;9.95;;;3.03;;
63259;SDS011;49390;51.380;0.098;2022-08-19T14:33:30;9.63;;;2.95;;
63259;SDS011;49390;51.380;0.098;2022-08-19T14:36:00;12.38;;;3.03;;
63259;SDS011;49390;51.380;0.098;2022-08-19T14:38:28;13.30;;;3.03;;
63259;SDS011;49390;51.380;0.098;2022-08-19T14:43:37;7.60;;;2.72;;
63259;SDS011;49390;51.380;0.098;2022-08-19T14:46:06;11.00;;;2.67;;
63259;SDS011;49390;51.380;0.098;2022-08-19T14:48:36;13.02;;;3.08;;
63259;SDS011;49390;51.380;0.098;2022-08-19T14:51:08;13.73;;;3.03;;
63259;SDS011;49390;51.380;0.098;2022-08-19T14:53:37;8.07;;;3.05;;
63259;SDS011;49390;51.380;0.098;2022-08-19T14:56:09;9.93;;;3.03;;
63259;SDS011;49390;51.380;0.098;2022-08-19T14:58:40;8.15;;;2.90;;
63259;SDS011;49390;51.380;0.098;2022-08-19T15:01:10;6.78;;;2.85;;
63259;SDS011;49390;51.380;0.098;2022-08-19T15:03:39;13.27;;;3.40;;
63259;SDS011;49390;51.380;0.098;2022-08-19T15:06:08;12.05;;;3.00;;
63259;SDS011;49390;51.380;0.098;2022-08-19T15:08:40;8.43;;;2.60;;
63259;SDS011;49390;51.380;0.098;2022-08-19T15:11:12;9.40;;;3.30;;
63259;SDS011;49390;51.380;0.098;2022-08-19T15:13:43;10.73;;;2.92;;
63259;SDS011;49390;51.380;0.098;2022-08-19T15:18:44;10.40;;;3.13;;
63259;SDS011;49390;51.380;0.098;2022-08-19T15:21:17;10.73;;;2.88;;
63259;SDS011;49390;51.380;0.098;2022-08-19T15:23:54;10.23;;;2.85;;
63259;SDS011;49390;51.380;0.098;2022-08-19T15:26:23;13.00;;;3.30;;
63259;SDS011;49390;51.380;0.098;2022-08-19T15:28:59;11.27;;;3.55;;
63259;SDS011;49390;51.380;0.098;2022-08-19T15:31:30;9.50;;;2.80;;
63259;SDS011;49390;51.380;0.098;2022-08-19T15:34:04;11.40;;;3.15;;
63259;SDS011;49390;51.380;0.098;2022-08-19T15:36:33;10.32;;;3.17;;
63259;SDS011;49390;51.380;0.098;2022-08-19T15:39:02;11.40;;;3.33;;
63259;SDS011;49390;51.380;0.098;2022-08-19T15:41:33;13.05;;;3.05;;
63259;SDS011;49390;51.380;0.098;2022-08-19T15:44:07;12.90;;;3.40;;
63259;SDS011;49390;51.380;0.098;2022-08-19T15:46:39;10.18;;;3.10;;